createdAt,value
2019-05-15T00:01:51.357Z,2.800000
2019-05-15T00:04:21.873Z,2.800000
2019-05-15T00:06:52.403Z,4.100000
2019-05-15T00:09:22.928Z,4.100000
2019-05-15T00:11:53.456Z,3.500000
2019-05-15T00:14:23.985Z,3.500000
2019-05-15T00:16:54.612Z,3.100000
2019-05-15T00:19:25.247Z,3.100000
2019-05-15T00:21:55.875Z,2.500000
2019-05-15T00:24:28.626Z,2.500000
2019-05-15T00:26:59.393Z,3.000000
2019-05-15T00:29:29.917Z,3.000000
2019-05-15T00:32:00.459Z,1.500000
2019-05-15T00:34:30.961Z,1.500000
2019-05-15T00:37:01.528Z,2.200000
2019-05-15T00:39:32.005Z,2.200000
2019-05-15T00:42:02.486Z,3.700000
2019-05-15T00:44:32.837Z,3.700000
2019-05-15T00:47:03.303Z,3.200000
2019-05-15T00:49:33.589Z,3.200000
2019-05-15T00:52:03.976Z,2.300000
2019-05-15T00:54:34.322Z,2.300000
2019-05-15T00:57:04.712Z,2.200000
2019-05-15T00:59:35.067Z,2.200000
2019-05-15T01:02:05.435Z,2.400000
2019-05-15T01:04:35.814Z,2.400000
2019-05-15T01:07:08.255Z,2.100000
2019-05-15T01:09:38.751Z,2.100000
2019-05-15T01:12:09.208Z,5.400000
2019-05-15T01:14:39.700Z,5.400000
2019-05-15T01:17:10.063Z,4.900000
2019-05-15T01:19:40.453Z,4.900000
2019-05-15T01:22:11.003Z,3.000000
2019-05-15T01:24:41.483Z,3.000000
2019-05-15T01:27:11.853Z,4.500000
2019-05-15T01:29:45.087Z,4.500000
2019-05-15T01:32:15.804Z,4.500000
2019-05-15T01:34:46.177Z,4.500000
2019-05-15T01:37:18.753Z,3.400000
2019-05-15T01:39:49.307Z,3.400000
2019-05-15T01:42:19.803Z,3.100000
2019-05-15T01:44:50.160Z,3.100000
2019-05-15T01:47:20.439Z,3.300000
2019-05-15T01:49:51.028Z,3.300000
2019-05-15T01:52:21.390Z,4.900000
2019-05-15T01:54:51.763Z,4.900000
2019-05-15T01:57:22.016Z,4.100000
2019-05-15T01:59:57.067Z,4.100000
2019-05-15T02:02:28.076Z,3.300000
2019-05-15T02:04:59.148Z,3.300000
2019-05-15T02:07:29.819Z,3.200000
2019-05-15T02:10:00.322Z,3.200000
2019-05-15T02:12:30.685Z,3.500000
2019-05-15T02:15:01.004Z,3.500000
2019-05-15T02:17:31.288Z,4.200000
2019-05-15T02:20:01.847Z,4.200000
2019-05-15T02:22:32.210Z,2.900000
2019-05-15T02:25:02.460Z,2.900000
2019-05-15T02:27:32.722Z,4.700000
2019-05-15T02:30:18.037Z,4.700000
2019-05-15T02:32:59.008Z,4.400000
2019-05-15T02:35:29.798Z,4.400000
2019-05-15T02:38:00.276Z,4.300000
2019-05-15T02:40:30.615Z,4.300000
2019-05-15T02:43:00.958Z,4.600000
2019-05-15T02:45:31.304Z,4.600000
2019-05-15T02:48:01.649Z,3.900000
2019-05-15T02:50:32.009Z,3.900000
2019-05-15T02:53:02.462Z,3.400000
2019-05-15T02:55:32.816Z,3.400000
2019-05-15T02:58:03.247Z,4.900000
2019-05-15T03:00:46.031Z,4.900000
2019-05-15T03:03:20.591Z,3.400000
2019-05-15T03:05:51.257Z,2.500000
2019-05-15T03:08:21.670Z,2.500000
2019-05-15T03:10:52.022Z,3.300000
2019-05-15T03:13:22.367Z,3.300000
2019-05-15T03:15:52.706Z,3.500000
2019-05-15T03:18:23.048Z,3.500000
2019-05-15T03:20:53.384Z,5.600000
2019-05-15T03:23:23.726Z,5.600000
2019-05-15T03:25:54.154Z,6.100000
2019-05-15T03:28:24.703Z,6.100000
2019-05-15T03:33:45.898Z,5.200000
2019-05-15T03:36:22.785Z,5.100000
2019-05-15T03:38:54.389Z,5.100000
2019-05-15T03:41:24.738Z,4.500000
2019-05-15T03:43:55.192Z,4.500000
2019-05-15T03:46:28.915Z,3.200000
2019-05-15T03:49:00.566Z,3.200000
2019-05-15T03:51:30.997Z,4.600000
2019-05-15T03:54:01.352Z,4.600000
2019-05-15T03:56:31.682Z,6.000000
2019-05-15T03:59:02.032Z,6.000000
2019-05-15T04:01:38.118Z,6.900000
2019-05-15T04:04:13.573Z,6.900000
2019-05-15T04:06:43.915Z,7.700000
2019-05-15T04:09:14.270Z,7.700000
2019-05-15T04:11:44.692Z,6.100000
2019-05-15T04:14:14.914Z,6.100000
2019-05-15T04:16:45.248Z,5.000000
2019-05-15T04:19:18.853Z,5.000000
2019-05-15T04:21:51.664Z,5.200000
2019-05-15T04:24:22.024Z,5.200000
2019-05-15T04:26:52.610Z,4.900000
2019-05-15T04:29:23.085Z,4.900000
2019-05-15T04:32:01.404Z,5.900000
2019-05-15T04:34:35.845Z,5.900000
2019-05-15T04:37:09.178Z,6.200000
2019-05-15T04:39:40.185Z,6.200000
2019-05-15T04:42:10.711Z,3.400000
2019-05-15T04:44:41.162Z,3.400000
2019-05-15T04:47:11.643Z,4.800000
2019-05-15T04:49:41.982Z,4.800000
2019-05-15T04:52:12.339Z,5.000000
2019-05-15T04:54:42.919Z,5.000000
2019-05-15T04:57:13.590Z,4.500000
2019-05-15T04:59:44.417Z,4.500000
2019-05-15T05:02:19.370Z,4.700000
2019-05-15T05:04:58.802Z,4.700000
2019-05-15T05:07:30.047Z,7.200000
2019-05-15T05:10:01.029Z,7.200000
2019-05-15T05:12:31.360Z,5.700000
2019-05-15T05:15:01.709Z,5.700000
2019-05-15T05:17:32.117Z,5.400000
2019-05-15T05:20:02.431Z,5.400000
2019-05-15T05:22:32.814Z,4.300000
2019-05-15T05:25:03.146Z,4.300000
2019-05-15T05:27:33.406Z,4.200000
2019-05-15T05:30:03.947Z,4.200000
2019-05-15T05:32:35.229Z,5.700000
2019-05-15T05:35:08.206Z,5.700000
2019-05-15T05:37:39.277Z,4.300000
2019-05-15T05:40:09.730Z,3.700000
2019-05-15T05:42:40.069Z,3.700000
2019-05-15T05:45:10.294Z,4.200000
2019-05-15T05:47:40.535Z,4.200000
2019-05-15T05:50:11.119Z,4.500000
2019-05-15T05:52:41.395Z,4.500000
2019-05-15T05:55:11.728Z,5.500000
2019-05-15T05:57:42.192Z,5.500000
2019-05-15T06:00:12.414Z,4.400000
2019-05-15T06:02:47.715Z,4.400000
2019-05-15T06:05:21.874Z,5.200000
2019-05-15T06:07:52.305Z,5.200000
2019-05-15T06:10:22.694Z,5.000000
2019-05-15T06:12:53.297Z,5.000000
2019-05-15T06:15:23.889Z,3.800000
2019-05-15T06:17:54.185Z,3.800000
2019-05-15T06:20:24.539Z,2.900000
2019-05-15T06:22:54.873Z,2.900000
2019-05-15T06:25:25.169Z,3.700000
2019-05-15T06:27:55.636Z,3.700000
2019-05-15T06:30:29.799Z,3.900000
2019-05-15T06:33:07.074Z,3.900000
2019-05-15T06:35:39.727Z,3.100000
2019-05-15T06:38:10.219Z,3.100000
2019-05-15T06:40:40.532Z,4.100000
2019-05-15T06:43:10.826Z,4.100000
2019-05-15T06:45:41.162Z,3.300000
2019-05-15T06:48:11.396Z,3.300000
2019-05-15T06:50:41.847Z,2.100000
2019-05-15T06:53:12.214Z,2.100000
2019-05-15T06:55:42.504Z,2.600000
2019-05-15T06:58:12.994Z,2.600000
2019-05-15T07:00:43.624Z,2.100000
2019-05-15T07:03:21.481Z,2.100000
2019-05-15T07:05:54.368Z,3.000000
2019-05-15T07:08:24.729Z,3.000000
2019-05-15T07:10:55.206Z,1.800000
2019-05-15T07:13:25.952Z,1.800000
2019-05-15T07:15:58.516Z,1.700000
2019-05-15T07:18:29.063Z,1.700000
2019-05-15T07:20:59.588Z,2.000000
2019-05-15T07:23:30.692Z,2.000000
2019-05-15T07:26:01.480Z,1.600000
2019-05-15T07:28:31.741Z,1.600000
2019-05-15T07:31:02.199Z,1.800000
2019-05-15T07:33:39.418Z,1.800000
2019-05-15T07:36:13.403Z,1.600000
2019-05-15T07:38:43.739Z,1.600000
2019-05-15T07:41:14.158Z,1.400000
2019-05-15T07:43:44.653Z,1.400000
2019-05-15T07:46:15.003Z,2.500000
2019-05-15T07:48:45.467Z,2.500000
2019-05-15T07:51:17.918Z,2.700000
2019-05-15T07:53:49.593Z,2.700000
2019-05-15T07:56:19.881Z,1.600000
2019-05-15T07:58:52.372Z,1.600000
2019-05-15T08:01:23.211Z,1.100000
2019-05-15T08:03:59.719Z,1.100000
2019-05-15T08:06:44.741Z,1.500000
2019-05-15T08:09:15.062Z,1.500000
2019-05-15T08:11:45.410Z,0.900000
2019-05-15T08:14:18.341Z,0.900000
2019-05-15T08:16:48.911Z,1.400000
2019-05-15T08:19:19.269Z,1.400000
2019-05-15T08:21:51.889Z,1.800000
2019-05-15T08:24:22.450Z,1.800000
2019-05-15T08:26:52.737Z,1.600000
2019-05-15T08:29:23.036Z,1.600000
2019-05-15T08:31:53.304Z,2.100000
2019-05-15T08:34:23.586Z,2.100000
2019-05-15T08:36:54.103Z,1.400000
2019-05-15T08:39:24.378Z,1.400000
2019-05-15T08:41:54.907Z,0.700000
2019-05-15T08:44:25.146Z,0.700000
2019-05-15T08:46:55.622Z,1.500000
2019-05-15T08:49:28.232Z,1.500000
2019-05-15T08:51:58.724Z,0.700000
2019-05-15T08:54:29.296Z,0.700000
2019-05-15T08:56:59.805Z,2.000000
2019-05-15T08:59:30.067Z,2.000000
2019-05-15T09:02:00.445Z,1.100000
2019-05-15T09:04:34.481Z,1.100000
2019-05-15T09:07:05.503Z,0.800000
2019-05-15T09:09:38.222Z,0.800000
2019-05-15T09:12:08.711Z,0.800000
2019-05-15T09:14:39.202Z,0.800000
2019-05-15T09:17:09.520Z,1.000000
2019-05-15T09:19:39.750Z,1.000000
2019-05-15T09:22:10.105Z,1.200000
2019-05-15T09:24:40.548Z,1.200000
2019-05-15T09:27:10.989Z,1.000000
2019-05-15T09:29:41.411Z,1.000000
2019-05-15T09:32:12.525Z,2.500000
2019-05-15T09:34:50.458Z,2.500000
2019-05-15T09:37:24.461Z,0.900000
2019-05-15T09:39:54.870Z,0.900000
2019-05-15T09:42:25.203Z,2.400000
2019-05-15T09:44:55.981Z,2.400000
2019-05-15T09:47:29.672Z,1.100000
2019-05-15T09:50:00.195Z,0.900000
2019-05-15T09:52:30.478Z,0.900000
2019-05-15T09:55:00.837Z,1.400000
2019-05-15T09:57:31.190Z,1.400000
2019-05-15T10:00:01.875Z,0.600000
2019-05-15T10:02:32.265Z,0.600000
2019-05-15T10:05:06.757Z,1.200000
2019-05-15T10:07:40.908Z,1.200000
2019-05-15T10:10:11.218Z,0.800000
2019-05-15T10:12:41.913Z,0.800000
2019-05-15T10:15:12.297Z,0.800000
2019-05-15T10:17:42.590Z,0.800000
2019-05-15T10:20:13.174Z,2.000000
2019-05-15T10:22:43.569Z,2.000000
2019-05-15T10:25:13.976Z,1.400000
2019-05-15T10:27:44.202Z,1.400000
2019-05-15T10:30:14.538Z,0.900000
2019-05-15T10:32:44.851Z,0.900000
2019-05-15T10:35:25.617Z,1.000000
2019-05-15T10:37:59.246Z,1.000000
2019-05-15T10:40:29.822Z,0.800000
2019-05-15T10:43:00.182Z,0.800000
2019-05-15T10:45:30.584Z,1.100000
2019-05-15T10:48:00.853Z,1.100000
2019-05-15T10:50:31.229Z,1.300000
2019-05-15T10:53:01.612Z,1.300000
2019-05-15T10:55:32.128Z,1.300000
2019-05-15T10:58:02.460Z,1.300000
2019-05-15T11:00:33.054Z,1.200000
2019-05-15T11:03:03.829Z,1.200000
2019-05-15T11:05:43.889Z,1.300000
2019-05-15T11:08:15.648Z,1.300000
2019-05-15T11:10:48.616Z,0.800000
2019-05-15T11:13:19.576Z,0.800000
2019-05-15T11:15:49.944Z,1.300000
2019-05-15T11:18:20.290Z,1.300000
2019-05-15T11:20:50.650Z,0.900000
2019-05-15T11:23:21.374Z,0.900000
2019-05-15T11:25:51.897Z,1.500000
2019-05-15T11:28:22.370Z,1.500000
2019-05-15T11:30:52.707Z,0.800000
2019-05-15T11:33:23.191Z,0.800000
2019-05-15T11:36:00.885Z,0.800000
2019-05-15T11:38:34.829Z,0.800000
2019-05-15T11:41:05.297Z,1.100000
2019-05-15T11:43:38.534Z,1.100000
2019-05-15T11:46:09.975Z,0.800000
2019-05-15T11:48:40.532Z,0.800000
2019-05-15T11:51:10.846Z,1.100000
2019-05-15T11:53:41.270Z,1.100000
2019-05-15T11:56:11.627Z,1.800000
2019-05-15T11:58:41.982Z,1.800000
2019-05-15T12:01:12.315Z,0.800000
2019-05-15T12:03:42.661Z,0.800000
2019-05-15T12:06:15.983Z,0.800000
2019-05-15T12:08:50.094Z,0.800000
2019-05-15T12:11:32.059Z,1.400000
2019-05-15T12:14:08.371Z,1.400000
2019-05-15T12:16:39.914Z,0.700000
2019-05-15T12:19:17.170Z,0.700000
2019-05-15T12:21:48.887Z,1.400000
2019-05-15T12:24:19.570Z,1.400000
2019-05-15T12:26:50.029Z,1.800000
2019-05-15T12:29:20.603Z,1.800000
2019-05-15T12:31:51.129Z,1.300000
2019-05-15T12:34:21.512Z,1.300000
2019-05-15T12:36:57.432Z,0.800000
2019-05-15T12:39:30.400Z,0.800000
2019-05-15T13:00:03.692Z,0.700000
2019-05-15T13:02:33.955Z,0.700000
2019-05-15T13:05:04.381Z,2.900000
2019-05-15T13:07:34.878Z,2.900000
2019-05-15T13:10:05.236Z,0.800000
2019-05-15T13:12:38.470Z,0.800000
2019-05-15T13:15:13.411Z,0.800000
2019-05-15T13:17:43.802Z,0.800000
2019-05-15T13:20:14.320Z,1.000000
2019-05-15T13:22:44.660Z,1.000000
2019-05-15T13:25:15.152Z,1.200000
2019-05-15T13:27:45.545Z,1.200000
2019-05-15T13:30:18.179Z,1.600000
2019-05-15T13:32:49.616Z,1.600000
2019-05-15T13:35:20.276Z,0.800000
2019-05-15T13:37:50.800Z,0.800000
2019-05-15T13:40:34.032Z,1.800000
2019-05-15T13:43:08.397Z,1.800000
2019-05-15T13:45:39.273Z,1.000000
2019-05-15T13:48:09.557Z,1.000000
2019-05-15T13:50:40.841Z,1.000000
2019-05-15T13:53:11.445Z,1.000000
2019-05-15T13:55:42.962Z,1.200000
2019-05-15T13:58:13.728Z,1.200000
2019-05-15T14:00:44.106Z,1.600000
2019-05-15T14:03:15.410Z,1.600000
2019-05-15T14:05:51.201Z,1.200000
2019-05-15T14:08:24.649Z,1.200000
2019-05-15T14:10:58.236Z,1.000000
2019-05-15T14:13:30.628Z,1.000000
2019-05-15T14:16:01.428Z,0.700000
2019-05-15T14:18:31.699Z,0.700000
2019-05-15T14:21:02.618Z,1.600000
2019-05-15T14:23:33.021Z,1.600000
2019-05-15T14:26:15.126Z,0.700000
2019-05-15T14:28:49.001Z,0.700000
2019-05-15T14:31:19.507Z,0.800000
2019-05-15T14:33:52.057Z,0.800000
2019-05-15T14:36:22.484Z,1.500000
2019-05-15T14:38:52.891Z,1.500000
2019-05-15T14:41:23.368Z,0.600000
2019-05-15T14:43:54.218Z,0.600000
2019-05-15T14:46:25.133Z,1.000000
2019-05-15T14:48:55.460Z,1.000000
2019-05-15T14:51:28.318Z,1.500000
2019-05-15T14:53:58.929Z,1.500000
2019-05-15T14:56:29.353Z,1.300000
2019-05-15T14:59:00.059Z,1.300000
2019-05-15T15:01:30.462Z,1.600000
2019-05-15T15:04:00.810Z,1.600000
2019-05-15T15:06:31.184Z,0.900000
2019-05-15T15:09:01.490Z,0.900000
2019-05-15T15:11:31.879Z,1.100000
2019-05-15T15:14:02.430Z,1.100000
2019-05-15T15:16:32.757Z,1.400000
2019-05-15T15:19:03.161Z,1.400000
2019-05-15T15:21:33.819Z,0.800000
2019-05-15T15:24:04.405Z,0.800000
2019-05-15T15:26:34.748Z,2.100000
2019-05-15T15:29:05.206Z,2.100000
2019-05-15T15:31:35.563Z,2.100000
2019-05-15T15:34:08.449Z,2.100000
2019-05-15T15:36:38.952Z,1.000000
2019-05-15T15:39:09.397Z,1.000000
2019-05-15T15:41:39.754Z,1.100000
2019-05-15T15:44:10.273Z,1.100000
2019-05-15T15:46:40.510Z,1.100000
2019-05-15T15:49:11.154Z,1.100000
2019-05-15T15:51:41.837Z,1.200000
2019-05-15T15:54:12.204Z,1.200000
2019-05-15T15:56:42.529Z,1.200000
2019-05-15T15:59:12.946Z,1.200000
2019-05-15T16:01:43.258Z,1.800000
2019-05-15T16:04:14.077Z,1.800000
2019-05-15T16:06:44.496Z,1.700000
2019-05-15T16:09:14.868Z,1.700000
2019-05-15T16:11:45.439Z,1.300000
2019-05-15T16:14:17.717Z,1.300000
2019-05-15T16:16:48.759Z,1.800000
2019-05-15T16:19:19.102Z,1.800000
2019-05-15T16:21:54.556Z,1.400000
2019-05-15T16:24:24.871Z,1.400000
2019-05-15T16:26:55.251Z,1.400000
2019-05-15T16:29:28.108Z,1.400000
2019-05-15T16:31:58.645Z,1.200000
2019-05-15T16:34:29.031Z,1.200000
2019-05-15T16:36:59.388Z,1.600000
2019-05-15T16:39:29.966Z,1.600000
2019-05-15T16:42:00.407Z,1.400000
2019-05-15T16:44:30.882Z,1.400000
2019-05-15T16:47:01.319Z,1.000000
2019-05-15T16:49:31.675Z,1.000000
2019-05-15T16:52:02.137Z,2.800000
2019-05-15T16:54:32.787Z,2.800000
2019-05-15T16:57:03.296Z,2.100000
2019-05-15T16:59:35.851Z,2.100000
2019-05-15T17:02:08.726Z,2.400000
2019-05-15T17:04:39.551Z,2.400000
2019-05-15T17:07:10.046Z,2.500000
2019-05-15T17:09:40.370Z,2.500000
2019-05-15T17:12:10.782Z,2.500000
2019-05-15T17:14:41.145Z,2.500000
2019-05-15T17:17:11.531Z,3.200000
2019-05-15T17:19:41.843Z,3.200000
2019-05-15T17:22:12.181Z,1.000000
2019-05-15T17:24:42.592Z,2.400000
2019-05-15T17:27:13.044Z,2.400000
2019-05-15T17:29:43.480Z,2.800000
2019-05-15T17:32:13.850Z,2.800000
2019-05-15T17:34:49.177Z,2.200000
2019-05-15T17:37:19.558Z,2.200000
2019-05-15T17:39:49.967Z,2.100000
2019-05-15T17:42:20.373Z,2.100000
2019-05-15T17:44:50.901Z,1.700000
2019-05-15T17:47:21.415Z,1.700000
2019-05-15T17:49:51.877Z,3.400000
2019-05-15T17:52:22.379Z,3.400000
2019-05-15T17:54:52.873Z,1.200000
2019-05-15T17:57:23.310Z,1.200000
2019-05-15T17:59:53.582Z,2.200000
2019-05-15T18:02:23.842Z,2.200000
2019-05-15T18:04:54.307Z,3.700000
2019-05-15T18:07:25.052Z,3.700000
2019-05-15T18:09:55.338Z,1.700000
2019-05-15T18:12:25.613Z,1.700000
2019-05-15T18:14:58.219Z,3.100000
2019-05-15T18:17:28.825Z,3.100000
2019-05-15T18:19:59.188Z,1.300000
2019-05-15T18:22:29.965Z,1.300000
2019-05-15T18:25:05.396Z,3.200000
2019-05-15T18:27:35.763Z,3.200000
2019-05-15T18:30:06.116Z,1.900000
2019-05-15T18:32:38.820Z,1.900000
2019-05-15T18:35:09.723Z,1.700000
2019-05-15T18:37:40.162Z,1.700000
2019-05-15T18:40:10.621Z,2.600000
2019-05-15T18:42:40.986Z,2.600000
2019-05-15T18:45:11.311Z,3.100000
2019-05-15T18:47:41.565Z,3.100000
2019-05-15T18:50:13.634Z,1.500000
2019-05-15T18:52:48.766Z,1.500000
2019-05-15T18:55:19.276Z,2.000000
2019-05-15T18:57:50.322Z,2.000000
2019-05-15T19:00:21.327Z,4.300000
2019-05-15T19:02:51.788Z,4.300000
2019-05-15T19:05:22.087Z,3.100000
2019-05-15T19:07:52.418Z,3.100000
2019-05-15T19:10:22.736Z,3.400000
2019-05-15T19:12:53.054Z,3.400000
2019-05-15T19:15:23.490Z,4.700000
2019-05-15T19:17:53.811Z,4.700000
2019-05-15T19:20:24.147Z,2.700000
2019-05-15T19:22:54.660Z,2.700000
2019-05-15T19:25:25.044Z,4.700000
2019-05-15T19:27:55.669Z,4.700000
2019-05-15T19:30:28.500Z,3.300000
2019-05-15T19:32:59.665Z,3.300000
2019-05-15T19:35:30.034Z,5.600000
2019-05-15T19:38:00.763Z,5.600000
2019-05-15T19:40:31.184Z,3.200000
2019-05-15T19:43:04.029Z,3.200000
2019-05-15T19:45:34.541Z,4.200000
2019-05-15T19:48:05.175Z,4.200000
2019-05-15T19:50:35.536Z,3.700000
2019-05-15T19:53:08.055Z,3.700000
2019-05-15T19:55:39.694Z,6.200000
2019-05-15T19:58:10.308Z,6.200000
2019-05-15T20:00:40.767Z,3.800000
2019-05-15T20:03:11.238Z,3.800000
2019-05-15T20:05:41.534Z,3.600000
2019-05-15T20:08:12.964Z,3.600000
2019-05-15T20:10:43.690Z,5.400000
2019-05-15T20:13:14.054Z,5.400000
2019-05-15T20:15:44.401Z,4.500000
2019-05-15T20:18:14.926Z,4.500000
2019-05-15T20:20:47.686Z,3.400000
2019-05-15T20:23:18.470Z,3.400000
2019-05-15T20:25:49.392Z,2.800000
2019-05-15T20:28:19.944Z,2.800000
2019-05-15T20:30:50.406Z,3.000000
2019-05-15T20:33:21.711Z,3.000000
2019-05-15T20:35:52.295Z,4.900000
2019-05-15T20:38:22.739Z,4.900000
2019-05-15T20:40:53.513Z,3.200000
2019-05-15T20:43:24.199Z,3.200000
2019-05-15T20:45:54.636Z,2.700000
2019-05-15T20:48:24.912Z,2.700000
2019-05-15T20:50:55.262Z,1.900000
2019-05-15T20:53:25.729Z,1.900000
2019-05-15T20:55:56.099Z,4.300000
2019-05-15T20:58:26.468Z,4.300000
2019-05-15T21:00:59.077Z,3.500000
2019-05-15T21:03:30.562Z,3.500000
2019-05-15T21:06:01.137Z,4.900000
2019-05-15T21:08:32.162Z,4.900000
2019-05-15T21:11:02.557Z,2.000000
2019-05-15T21:13:33.308Z,2.000000
2019-05-15T21:16:03.994Z,3.400000
2019-05-15T21:18:34.446Z,3.400000
2019-05-15T21:21:04.981Z,3.200000
2019-05-15T21:23:35.321Z,3.200000
2019-05-15T21:26:07.770Z,3.700000
2019-05-15T21:28:41.206Z,3.700000
2019-05-15T21:31:11.758Z,4.700000
2019-05-15T21:33:42.105Z,4.700000
2019-05-15T21:36:12.449Z,3.200000
2019-05-15T21:38:42.980Z,3.200000
2019-05-15T21:41:13.414Z,2.900000
2019-05-15T21:43:43.942Z,2.900000
2019-05-15T21:46:14.417Z,4.600000
2019-05-15T21:48:44.724Z,4.600000
2019-05-15T21:51:15.266Z,4.200000
2019-05-15T21:53:47.636Z,4.200000
2019-05-15T21:56:18.860Z,3.700000
2019-05-15T21:58:49.443Z,3.700000
2019-05-15T22:01:20.096Z,3.500000
2019-05-15T22:03:50.521Z,3.500000
2019-05-15T22:06:20.956Z,3.300000
2019-05-15T22:08:51.383Z,3.300000
2019-05-15T22:11:22.069Z,4.200000
2019-05-15T22:13:52.482Z,4.200000
2019-05-15T22:16:22.800Z,3.200000
2019-05-15T22:18:53.145Z,3.200000
2019-05-15T22:21:28.495Z,4.100000
2019-05-15T22:24:03.897Z,4.000000
2019-05-15T22:26:34.208Z,4.000000
2019-05-15T22:29:04.530Z,3.600000
2019-05-15T22:31:34.867Z,3.600000
2019-05-15T22:34:05.206Z,3.700000
2019-05-15T22:36:35.534Z,3.700000
2019-05-15T22:39:08.443Z,3.300000
2019-05-15T22:41:39.089Z,3.300000
2019-05-15T22:44:10.354Z,2.900000
2019-05-15T22:46:40.754Z,2.900000
2019-05-15T22:49:11.264Z,1.700000
2019-05-15T22:51:41.586Z,1.700000
2019-05-15T22:54:11.928Z,1.900000
2019-05-15T22:56:42.333Z,1.900000
2019-05-15T22:59:12.767Z,2.300000
2019-05-15T23:01:43.191Z,2.300000
2019-05-15T23:04:13.718Z,2.800000
2019-05-15T23:06:44.151Z,2.800000
2019-05-15T23:09:14.579Z,3.200000
2019-05-15T23:11:45.001Z,3.200000
2019-05-15T23:14:15.432Z,2.600000
2019-05-15T23:16:48.153Z,2.600000
2019-05-15T23:19:18.870Z,1.900000
2019-05-15T23:21:49.209Z,1.900000
2019-05-15T23:24:19.611Z,2.800000
2019-05-15T23:26:50.006Z,2.800000
2019-05-15T23:29:20.257Z,2.400000
2019-05-15T23:31:50.681Z,2.400000
2019-05-15T23:34:21.077Z,5.600000
2019-05-15T23:36:51.535Z,5.600000
2019-05-15T23:39:21.937Z,3.500000
2019-05-15T23:41:52.370Z,3.500000
2019-05-15T23:44:22.778Z,2.900000
2019-05-15T23:46:53.103Z,2.900000
2019-05-15T23:49:23.415Z,4.600000
2019-05-15T23:51:53.722Z,4.600000
2019-05-15T23:54:24.245Z,2.600000
2019-05-15T23:56:54.550Z,2.600000
2019-05-15T23:59:24.830Z,3.100000
